createdAt,value
2023-01-29T00:04:45.658Z,4.65
2023-01-29T00:07:13.284Z,4.30
2023-01-29T00:09:40.896Z,3.80
2023-01-29T00:12:11.507Z,3.85
2023-01-29T00:14:39.207Z,3.90
2023-01-29T00:17:06.932Z,4.35
2023-01-29T00:19:35.603Z,3.58
2023-01-29T00:22:03.941Z,3.72
2023-01-29T00:26:58.962Z,4.43
2023-01-29T00:31:54.824Z,3.90
2023-01-29T00:34:23.553Z,4.10
2023-01-29T00:36:51.432Z,3.80
2023-01-29T00:39:29.404Z,4.13
2023-01-29T00:42:23.058Z,3.97
2023-01-29T00:44:59.541Z,4.22
2023-01-29T00:47:34.052Z,3.78
2023-01-29T00:50:07.568Z,3.60
2023-01-29T00:52:36.665Z,3.47
2023-01-29T00:55:05.720Z,4.97
2023-01-29T00:57:34.673Z,3.85
2023-01-29T01:00:04.638Z,4.22
2023-01-29T01:02:50.782Z,4.25
2023-01-29T01:07:54.400Z,3.95
2023-01-29T01:10:31.543Z,4.03
2023-01-29T01:13:05.940Z,3.97
2023-01-29T01:15:39.874Z,3.85
2023-01-29T01:18:07.819Z,4.10
2023-01-29T01:20:36.439Z,4.28
2023-01-29T01:23:04.641Z,4.15
2023-01-29T01:25:32.757Z,3.70
2023-01-29T01:28:02.938Z,2.92
2023-01-29T01:30:30.839Z,4.38
2023-01-29T01:32:59.809Z,4.20
2023-01-29T01:35:27.707Z,4.20
2023-01-29T01:37:55.692Z,3.90
2023-01-29T01:40:25.383Z,3.63
2023-01-29T01:42:56.525Z,3.70
2023-01-29T01:45:35.862Z,4.00
2023-01-29T01:48:12.953Z,3.72
2023-01-29T01:50:49.914Z,4.23
2023-01-29T01:53:26.622Z,4.28
2023-01-29T01:56:04.087Z,7.10
2023-01-29T01:58:37.158Z,4.80
2023-01-29T02:01:08.377Z,3.30
2023-01-29T02:04:03.851Z,4.07
2023-01-29T02:06:51.487Z,3.65
2023-01-29T02:09:34.835Z,6.57
2023-01-29T02:12:14.314Z,3.78
2023-01-29T02:14:43.571Z,4.03
2023-01-29T02:17:14.591Z,3.80
2023-01-29T02:19:50.273Z,3.40
2023-01-29T02:22:49.073Z,3.97
2023-01-29T02:25:19.997Z,2.95
2023-01-29T02:28:06.554Z,3.63
2023-01-29T02:30:44.735Z,3.80
2023-01-29T02:33:41.084Z,3.00
2023-01-29T02:36:19.911Z,3.70
2023-01-29T02:39:20.137Z,3.40
2023-01-29T02:42:11.779Z,4.93
2023-01-29T02:44:53.634Z,3.80
2023-01-29T02:47:33.301Z,6.28
2023-01-29T02:50:10.797Z,5.10
2023-01-29T02:52:44.725Z,2.80
2023-01-29T02:55:31.297Z,5.05
2023-01-29T02:58:29.535Z,5.53
2023-01-29T03:01:05.137Z,4.50
2023-01-29T03:03:40.532Z,3.93
2023-01-29T03:06:22.510Z,4.05
2023-01-29T03:09:00.655Z,4.72
2023-01-29T03:11:36.592Z,4.95
2023-01-29T03:14:16.973Z,4.80
2023-01-29T03:16:51.762Z,4.28
2023-01-29T03:19:42.630Z,4.40
2023-01-29T03:22:23.429Z,4.40
2023-01-29T03:25:15.942Z,4.70
2023-01-29T03:28:20.077Z,4.25
2023-01-29T03:31:12.656Z,3.67
2023-01-29T03:33:58.257Z,4.80
2023-01-29T03:36:49.417Z,3.28
2023-01-29T03:39:17.800Z,3.60
2023-01-29T03:41:53.549Z,3.17
2023-01-29T03:44:37.179Z,3.50
2023-01-29T03:47:13.889Z,4.55
2023-01-29T03:49:59.846Z,3.78
2023-01-29T03:52:52.438Z,3.88
2023-01-29T03:55:43.512Z,4.20
2023-01-29T03:58:25.358Z,5.32
2023-01-29T04:01:16.876Z,4.50
2023-01-29T04:03:56.154Z,4.43
2023-01-29T04:06:28.335Z,4.20
2023-01-29T04:09:14.301Z,4.75
2023-01-29T04:11:58.437Z,4.15
2023-01-29T04:14:26.145Z,4.30
2023-01-29T04:16:58.665Z,3.92
2023-01-29T04:19:35.228Z,4.38
2023-01-29T04:22:27.999Z,4.50
2023-01-29T04:25:02.488Z,4.50
2023-01-29T04:27:57.651Z,3.20
2023-01-29T04:30:33.532Z,3.72
2023-01-29T04:33:29.437Z,4.10
2023-01-29T04:36:23.761Z,4.47
2023-01-29T04:39:21.969Z,3.42
2023-01-29T04:42:03.250Z,3.47
2023-01-29T04:44:41.940Z,3.78
2023-01-29T04:47:26.306Z,4.03
2023-01-29T04:49:59.530Z,3.30
2023-01-29T04:52:37.575Z,3.70
2023-01-29T04:57:49.614Z,3.38
2023-01-29T05:00:23.226Z,3.80
2023-01-29T05:02:51.452Z,3.85
2023-01-29T05:05:20.877Z,4.15
2023-01-29T05:07:49.238Z,3.88
2023-01-29T05:13:01.411Z,3.78
2023-01-29T05:16:04.849Z,3.22
2023-01-29T05:18:32.748Z,3.35
2023-01-29T05:21:04.701Z,3.75
2023-01-29T05:23:32.811Z,3.75
2023-01-29T05:26:00.604Z,3.88
2023-01-29T05:28:28.267Z,4.03
2023-01-29T05:30:57.103Z,3.72
2023-01-29T05:33:30.480Z,3.65
2023-01-29T05:38:33.995Z,3.53
2023-01-29T05:43:28.315Z,2.83
2023-01-29T05:45:58.225Z,3.60
2023-01-29T05:48:28.828Z,3.67
2023-01-29T05:51:03.939Z,3.72
2023-01-29T05:53:32.711Z,3.42
2023-01-29T05:56:05.133Z,4.03
2023-01-29T05:58:34.183Z,3.53
2023-01-29T06:01:28.409Z,3.63
2023-01-29T06:03:56.125Z,4.45
2023-01-29T06:06:23.953Z,3.90
2023-01-29T06:08:51.652Z,3.47
2023-01-29T06:11:19.366Z,3.55
2023-01-29T06:13:47.959Z,3.67
2023-01-29T06:16:17.057Z,3.60
2023-01-29T06:18:44.669Z,3.83
2023-01-29T06:21:13.702Z,3.38
2023-01-29T06:23:41.414Z,3.58
2023-01-29T06:26:13.907Z,3.80
2023-01-29T06:28:42.166Z,3.25
2023-01-29T06:31:27.457Z,3.80
2023-01-29T06:33:58.872Z,3.10
2023-01-29T06:36:26.394Z,3.45
2023-01-29T06:38:54.104Z,2.45
2023-01-29T06:41:25.415Z,3.95
2023-01-29T06:43:53.318Z,3.67
2023-01-29T06:46:21.371Z,3.17
2023-01-29T06:51:16.511Z,2.80
2023-01-29T06:53:46.025Z,4.00
2023-01-29T06:56:14.342Z,3.78
2023-01-29T06:58:43.587Z,3.63
2023-01-29T07:01:19.706Z,3.47
2023-01-29T07:03:56.865Z,3.55
2023-01-29T07:06:31.218Z,3.50
2023-01-29T07:08:58.921Z,3.72
2023-01-29T07:11:26.686Z,3.88
2023-01-29T07:13:54.232Z,3.38
2023-01-29T07:16:21.956Z,2.70
2023-01-29T07:18:49.603Z,3.28
2023-01-29T07:21:17.364Z,2.13
2023-01-29T07:23:45.607Z,3.70
2023-01-29T07:26:13.330Z,3.72
2023-01-29T07:28:41.515Z,3.25
2023-01-29T07:31:12.914Z,4.15
2023-01-29T07:33:40.842Z,3.47
2023-01-29T07:36:09.536Z,3.33
2023-01-29T07:38:37.255Z,3.63
2023-01-29T07:41:05.417Z,3.17
2023-01-29T07:43:33.119Z,3.60
2023-01-29T07:46:05.265Z,3.05
2023-01-29T07:48:33.250Z,2.70
2023-01-29T07:51:00.858Z,3.45
2023-01-29T07:53:29.394Z,2.63
2023-01-29T07:55:57.741Z,2.72
2023-01-29T08:00:52.922Z,2.08
2023-01-29T08:03:20.950Z,2.13
2023-01-29T08:05:48.746Z,3.63
2023-01-29T08:08:16.482Z,1.85
2023-01-29T08:10:44.083Z,2.45
2023-01-29T08:13:11.799Z,2.88
2023-01-29T08:15:42.288Z,3.10
2023-01-29T08:18:09.990Z,2.53
2023-01-29T08:20:37.634Z,2.45
2023-01-29T08:23:14.855Z,2.92
2023-01-29T08:25:43.013Z,2.15
2023-01-29T08:28:11.858Z,2.53
2023-01-29T08:30:39.897Z,2.42
2023-01-29T08:33:07.571Z,2.80
2023-01-29T08:35:35.351Z,2.53
2023-01-29T08:38:04.744Z,2.25
2023-01-29T08:40:34.728Z,2.90
2023-01-29T08:43:09.235Z,3.55
2023-01-29T08:45:40.779Z,3.03
2023-01-29T08:48:09.408Z,3.40
2023-01-29T08:50:37.760Z,2.83
2023-01-29T08:53:08.027Z,3.33
2023-01-29T08:55:37.737Z,4.10
2023-01-29T08:58:06.936Z,2.90
2023-01-29T09:00:35.182Z,2.92
2023-01-29T09:05:31.335Z,3.00
2023-01-29T09:07:59.398Z,3.30
2023-01-29T09:10:27.082Z,2.92
2023-01-29T09:12:54.702Z,3.13
2023-01-29T09:15:23.094Z,2.15
2023-01-29T09:17:50.653Z,3.13
2023-01-29T09:20:19.580Z,2.60
2023-01-29T09:22:47.343Z,2.70
2023-01-29T09:25:15.525Z,2.70
2023-01-29T09:27:43.276Z,3.00
2023-01-29T09:30:11.727Z,2.60
2023-01-29T09:32:55.081Z,3.08
2023-01-29T09:35:23.579Z,3.10
2023-01-29T09:37:52.195Z,2.83
2023-01-29T09:40:30.732Z,3.38
2023-01-29T09:43:07.078Z,3.00
2023-01-29T09:45:35.320Z,2.65
2023-01-29T09:48:05.868Z,2.83
2023-01-29T09:50:40.153Z,2.85
2023-01-29T09:53:40.560Z,2.92
2023-01-29T09:56:14.183Z,3.30
2023-01-29T09:58:43.593Z,2.80
2023-01-29T10:01:35.451Z,2.58
2023-01-29T10:04:21.791Z,2.63
2023-01-29T10:07:16.224Z,2.75
2023-01-29T10:09:43.975Z,2.00
2023-01-29T10:12:40.014Z,2.97
2023-01-29T10:15:31.798Z,2.38
2023-01-29T10:18:18.302Z,2.45
2023-01-29T10:21:22.733Z,2.30
2023-01-29T10:24:22.032Z,2.00
2023-01-29T10:26:51.947Z,2.28
2023-01-29T10:29:22.149Z,2.10
2023-01-29T10:31:55.491Z,1.58
2023-01-29T10:34:35.583Z,1.60
2023-01-29T10:37:15.696Z,1.75
2023-01-29T10:39:43.289Z,2.25
2023-01-29T10:42:22.907Z,1.90
2023-01-29T10:45:25.191Z,1.85
2023-01-29T10:48:25.419Z,1.80
2023-01-29T10:51:01.943Z,1.70
2023-01-29T10:53:47.510Z,2.20
2023-01-29T10:56:23.640Z,1.80
2023-01-29T10:58:59.972Z,2.00
2023-01-29T11:01:27.873Z,1.50
2023-01-29T11:04:04.180Z,1.70
2023-01-29T11:06:33.823Z,2.03
2023-01-29T11:09:08.967Z,2.08
2023-01-29T11:11:55.187Z,2.15
2023-01-29T11:14:43.913Z,1.52
2023-01-29T11:17:16.909Z,1.98
2023-01-29T11:19:47.074Z,1.77
2023-01-29T11:22:20.275Z,1.60
2023-01-29T11:25:10.130Z,2.00
2023-01-29T11:27:45.644Z,1.88
2023-01-29T11:30:27.530Z,2.42
2023-01-29T11:33:18.702Z,2.08
2023-01-29T11:35:47.513Z,2.55
2023-01-29T11:38:17.296Z,2.50
2023-01-29T11:40:46.505Z,2.40
2023-01-29T11:43:41.134Z,2.78
2023-01-29T11:46:15.786Z,2.33
2023-01-29T11:48:59.026Z,1.80
2023-01-29T11:51:30.294Z,1.73
2023-01-29T11:54:03.539Z,1.33
2023-01-29T11:56:45.493Z,1.17
2023-01-29T11:59:31.971Z,1.67
2023-01-29T12:02:18.987Z,1.42
2023-01-29T12:04:47.760Z,1.10
2023-01-29T12:07:18.032Z,1.42
2023-01-29T12:09:52.637Z,1.80
2023-01-29T12:12:40.037Z,1.45
2023-01-29T12:15:21.903Z,1.05
2023-01-29T12:18:15.812Z,1.70
2023-01-29T12:21:03.308Z,1.52
2023-01-29T12:23:53.830Z,0.90
2023-01-29T12:26:43.268Z,1.00
2023-01-29T12:29:38.872Z,1.20
2023-01-29T12:32:12.792Z,1.10
2023-01-29T12:34:46.463Z,1.38
2023-01-29T12:37:34.637Z,1.25
2023-01-29T12:40:03.007Z,1.02
2023-01-29T12:42:31.948Z,1.27
2023-01-29T12:45:08.092Z,1.30
2023-01-29T12:47:44.024Z,1.30
2023-01-29T12:50:19.187Z,1.38
2023-01-29T12:52:50.051Z,1.17
2023-01-29T12:55:25.540Z,1.20
2023-01-29T12:58:09.703Z,1.20
2023-01-29T13:00:40.407Z,1.70
2023-01-29T13:03:43.698Z,1.20
2023-01-29T13:06:19.509Z,1.40
2023-01-29T13:08:58.787Z,1.50
2023-01-29T13:11:39.637Z,1.35
2023-01-29T13:14:20.738Z,1.63
2023-01-29T13:16:54.021Z,1.40
2023-01-29T13:19:31.991Z,1.60
2023-01-29T13:22:02.851Z,1.30
2023-01-29T13:24:39.787Z,1.40
2023-01-29T13:27:08.022Z,1.08
2023-01-29T13:29:35.748Z,1.15
2023-01-29T13:32:04.720Z,1.23
2023-01-29T13:34:43.731Z,1.25
2023-01-29T13:37:17.866Z,1.30
2023-01-29T13:39:53.248Z,1.00
2023-01-29T13:42:25.484Z,1.30
2023-01-29T13:45:01.420Z,1.38
2023-01-29T13:47:31.894Z,1.25
2023-01-29T13:50:45.556Z,1.25
2023-01-29T13:53:27.185Z,1.20
2023-01-29T13:55:55.068Z,1.30
2023-01-29T13:58:31.598Z,1.23
2023-01-29T14:01:01.536Z,0.90
2023-01-29T14:03:35.917Z,1.27
2023-01-29T14:06:41.670Z,1.00
2023-01-29T14:09:38.427Z,0.93
2023-01-29T14:12:24.569Z,0.90
2023-01-29T14:14:55.095Z,0.80
2023-01-29T14:17:24.577Z,1.15
2023-01-29T14:20:02.564Z,1.00
2023-01-29T14:25:05.047Z,0.90
2023-01-29T14:27:34.241Z,0.90
2023-01-29T14:30:09.793Z,0.88
2023-01-29T14:32:40.608Z,0.98
2023-01-29T14:35:32.676Z,1.00
2023-01-29T14:38:05.990Z,0.80
2023-01-29T14:40:36.852Z,1.10
2023-01-29T14:43:08.052Z,0.60
2023-01-29T14:45:41.944Z,0.77
2023-01-29T14:48:12.467Z,1.02
2023-01-29T14:50:52.034Z,0.77
2023-01-29T14:53:45.542Z,1.10
2023-01-29T14:56:24.208Z,0.77
2023-01-29T14:59:12.160Z,0.82
2023-01-29T15:04:43.411Z,0.80
2023-01-29T15:07:11.008Z,0.82
2023-01-29T15:09:57.290Z,1.05
2023-01-29T15:12:29.405Z,0.65
2023-01-29T15:15:22.171Z,0.63
2023-01-29T15:17:57.554Z,0.98
2023-01-29T15:20:33.142Z,0.70
2023-01-29T15:23:03.454Z,0.93
2023-01-29T15:25:46.921Z,0.73
2023-01-29T15:28:15.703Z,0.82
2023-01-29T15:30:45.049Z,0.80
2023-01-29T15:33:14.957Z,1.25
2023-01-29T15:35:43.287Z,0.98
2023-01-29T15:38:22.766Z,0.80
2023-01-29T15:41:01.856Z,0.98
2023-01-29T15:43:30.551Z,0.90
2023-01-29T15:46:14.599Z,0.73
2023-01-29T15:48:44.617Z,0.65
2023-01-29T15:51:18.586Z,0.90
2023-01-29T15:53:56.558Z,0.70
2023-01-29T15:56:28.150Z,0.90
2023-01-29T15:58:58.991Z,0.80
2023-01-29T16:01:27.714Z,0.95
2023-01-29T16:03:59.381Z,0.90
2023-01-29T16:06:27.647Z,0.90
2023-01-29T16:08:55.999Z,0.90
2023-01-29T16:11:23.887Z,0.98
2023-01-29T16:13:52.050Z,0.90
2023-01-29T16:18:59.975Z,1.15
2023-01-29T16:21:40.595Z,1.20
2023-01-29T16:24:13.557Z,1.00
2023-01-29T16:26:47.455Z,0.95
2023-01-29T16:29:23.860Z,0.70
2023-01-29T16:32:00.450Z,1.00
2023-01-29T16:34:35.422Z,1.02
2023-01-29T16:37:07.431Z,0.80
2023-01-29T16:39:39.848Z,1.20
2023-01-29T16:42:20.374Z,0.90
2023-01-29T16:44:54.058Z,1.30
2023-01-29T16:47:34.340Z,1.10
2023-01-29T16:50:40.566Z,1.30
2023-01-29T16:53:21.839Z,1.02
2023-01-29T16:55:51.433Z,1.33
2023-01-29T16:58:25.930Z,1.50
2023-01-29T17:01:06.806Z,1.55
2023-01-29T17:03:35.339Z,1.67
2023-01-29T17:06:18.927Z,1.83
2023-01-29T17:08:46.761Z,1.45
2023-01-29T17:11:25.699Z,1.10
2023-01-29T17:16:25.750Z,1.20
2023-01-29T17:18:53.696Z,1.50
2023-01-29T17:21:21.463Z,1.40
2023-01-29T17:23:49.435Z,1.48
2023-01-29T17:26:18.050Z,1.45
2023-01-29T17:28:46.230Z,1.73
2023-01-29T17:33:43.147Z,1.27
2023-01-29T17:36:16.090Z,1.50
2023-01-29T17:38:44.278Z,1.58
2023-01-29T17:41:27.956Z,1.75
2023-01-29T17:43:55.939Z,1.75
2023-01-29T17:46:23.801Z,1.38
2023-01-29T17:48:51.356Z,1.50
2023-01-29T17:51:19.309Z,1.77
2023-01-29T17:53:47.580Z,1.75
2023-01-29T17:56:24.153Z,1.80
2023-01-29T17:58:51.883Z,1.50
2023-01-29T18:01:19.797Z,1.38
2023-01-29T18:03:47.335Z,1.67
2023-01-29T18:06:27.167Z,1.70
2023-01-29T18:08:56.394Z,1.42
2023-01-29T18:11:24.649Z,1.60
2023-01-29T18:13:52.534Z,1.50
2023-01-29T18:16:23.680Z,1.50
2023-01-29T18:18:52.165Z,2.03
2023-01-29T18:21:19.876Z,1.63
2023-01-29T18:23:47.454Z,1.60
2023-01-29T18:26:16.915Z,1.65
2023-01-29T18:28:45.179Z,1.40
2023-01-29T18:31:14.428Z,1.52
2023-01-29T18:33:42.624Z,1.45
2023-01-29T18:36:10.194Z,1.45
2023-01-29T18:38:37.810Z,1.40
2023-01-29T18:41:10.821Z,1.63
2023-01-29T18:43:40.025Z,1.73
2023-01-29T18:46:08.763Z,2.15
2023-01-29T18:48:36.686Z,1.48
2023-01-29T18:51:04.521Z,1.38
2023-01-29T18:53:33.522Z,1.98
2023-01-29T18:56:06.085Z,1.75
2023-01-29T18:58:38.761Z,1.30
2023-01-29T19:01:10.158Z,2.00
2023-01-29T19:03:39.124Z,1.42
2023-01-29T19:06:08.858Z,2.08
2023-01-29T19:08:37.103Z,2.05
2023-01-29T19:13:38.037Z,2.22
2023-01-29T19:16:13.570Z,2.33
2023-01-29T19:18:41.273Z,1.90
2023-01-29T19:21:10.929Z,2.20
2023-01-29T19:23:39.113Z,2.38
2023-01-29T19:26:07.015Z,1.95
2023-01-29T19:28:35.001Z,2.47
2023-01-29T19:31:03.213Z,2.17
2023-01-29T19:33:30.918Z,2.28
2023-01-29T19:35:59.853Z,2.67
2023-01-29T19:38:28.338Z,2.67
2023-01-29T19:40:56.320Z,2.10
2023-01-29T19:43:23.875Z,3.25
2023-01-29T19:45:58.457Z,2.97
2023-01-29T19:48:26.768Z,2.35
2023-01-29T19:50:56.267Z,2.70
2023-01-29T19:53:24.530Z,2.03
2023-01-29T19:58:33.865Z,2.30
2023-01-29T20:01:04.878Z,3.10
2023-01-29T20:03:32.879Z,2.95
2023-01-29T20:06:05.994Z,2.33
2023-01-29T20:08:34.447Z,2.28
2023-01-29T20:11:02.465Z,1.95
2023-01-29T20:13:30.248Z,2.67
2023-01-29T20:15:58.173Z,2.42
2023-01-29T20:18:25.777Z,2.30
2023-01-29T20:20:53.601Z,1.92
2023-01-29T20:23:36.685Z,2.10
2023-01-29T20:26:06.355Z,2.15
2023-01-29T20:28:34.637Z,2.20
2023-01-29T20:31:03.007Z,1.63
2023-01-29T20:33:31.215Z,2.45
2023-01-29T20:38:31.878Z,2.20
2023-01-29T20:41:15.214Z,1.80
2023-01-29T20:43:43.970Z,2.08
2023-01-29T20:46:11.809Z,1.88
2023-01-29T20:48:39.642Z,2.10
2023-01-29T20:51:13.795Z,1.52
2023-01-29T20:53:43.348Z,2.13
2023-01-29T20:56:11.509Z,1.90
2023-01-29T20:58:41.018Z,1.42
2023-01-29T21:01:10.664Z,2.15
2023-01-29T21:03:39.235Z,1.63
2023-01-29T21:06:08.845Z,1.83
2023-01-29T21:08:38.850Z,1.58
2023-01-29T21:11:08.673Z,1.75
2023-01-29T21:13:36.693Z,2.00
2023-01-29T21:16:04.560Z,2.13
2023-01-29T21:18:32.366Z,2.00
2023-01-29T21:20:59.986Z,1.58
2023-01-29T21:23:27.750Z,1.65
2023-01-29T21:26:02.709Z,2.40
2023-01-29T21:28:30.711Z,1.70
2023-01-29T21:31:10.177Z,1.70
2023-01-29T21:33:38.506Z,1.50
2023-01-29T21:36:06.880Z,1.33
2023-01-29T21:38:34.493Z,1.30
2023-01-29T21:41:04.584Z,1.25
2023-01-29T21:43:32.563Z,1.20
2023-01-29T21:46:05.248Z,1.30
2023-01-29T21:48:32.956Z,1.33
2023-01-29T21:51:00.522Z,0.98
2023-01-29T21:53:28.155Z,1.00
2023-01-29T21:56:05.948Z,1.33
2023-01-29T21:58:34.268Z,1.70
2023-01-29T22:01:18.460Z,1.85
2023-01-29T22:03:49.514Z,1.80
2023-01-29T22:06:17.225Z,1.52
2023-01-29T22:08:44.878Z,1.88
2023-01-29T22:11:12.760Z,1.73
2023-01-29T22:13:40.362Z,1.98
2023-01-29T22:16:08.579Z,2.20
2023-01-29T22:18:36.596Z,1.70
2023-01-29T22:21:04.991Z,1.60
2023-01-29T22:23:32.871Z,1.63
2023-01-29T22:26:09.063Z,1.50
2023-01-29T22:28:37.152Z,1.50
2023-01-29T22:31:06.604Z,1.35
2023-01-29T22:33:35.039Z,1.50
2023-01-29T22:36:03.123Z,1.45
2023-01-29T22:40:59.917Z,1.40
2023-01-29T22:43:27.959Z,1.10
2023-01-29T22:45:56.571Z,2.00
2023-01-29T22:48:24.475Z,1.48
2023-01-29T22:51:12.063Z,1.58
2023-01-29T22:53:52.784Z,1.15
2023-01-29T22:56:25.372Z,1.38
2023-01-29T22:58:57.690Z,1.40
2023-01-29T23:01:27.838Z,1.30
2023-01-29T23:03:55.555Z,1.23
2023-01-29T23:06:23.830Z,1.42
2023-01-29T23:08:51.813Z,1.20
2023-01-29T23:13:50.587Z,1.48
2023-01-29T23:16:20.277Z,1.58
2023-01-29T23:18:53.721Z,1.88
2023-01-29T23:21:23.352Z,2.03
2023-01-29T23:23:56.971Z,2.28
2023-01-29T23:26:43.397Z,1.85
2023-01-29T23:29:11.033Z,2.17
2023-01-29T23:31:39.024Z,2.20
2023-01-29T23:34:06.673Z,2.38
2023-01-29T23:36:34.586Z,2.85
2023-01-29T23:41:30.157Z,2.75
2023-01-29T23:43:58.177Z,2.70
2023-01-29T23:51:22.285Z,2.55
2023-01-29T23:53:50.407Z,2.22
2023-01-29T23:56:18.333Z,2.97
2023-01-29T23:58:46.784Z,1.92
